sensor_id;sensor_type;location;lat;lon;timestamp;P1;durP1;ratioP1;P2;durP2;ratioP2
84937;SDS011;75210;52.210;20.902;2024-03-22T00:00:33;47.60;;;24.63;;
84937;SDS011;75210;52.210;20.902;2024-03-22T00:01:33;50.97;;;27.33;;
84937;SDS011;75210;52.210;20.902;2024-03-22T00:02:35;51.22;;;26.98;;
84937;SDS011;75210;52.210;20.902;2024-03-22T00:03:35;50.38;;;26.30;;
84937;SDS011;75210;52.210;20.902;2024-03-22T00:04:36;56.55;;;28.65;;
84937;SDS011;75210;52.210;20.902;2024-03-22T00:05:37;51.97;;;27.75;;
84937;SDS011;75210;52.210;20.902;2024-03-22T00:06:37;51.05;;;26.77;;
84937;SDS011;75210;52.210;20.902;2024-03-22T00:07:41;48.50;;;25.42;;
84937;SDS011;75210;52.210;20.902;2024-03-22T00:08:41;52.28;;;27.00;;
84937;SDS011;75210;52.210;20.902;2024-03-22T00:09:41;51.28;;;26.80;;
84937;SDS011;75210;52.210;20.902;2024-03-22T00:10:42;49.03;;;27.05;;
84937;SDS011;75210;52.210;20.902;2024-03-22T00:11:43;47.97;;;27.52;;
84937;SDS011;75210;52.210;20.902;2024-03-22T00:12:44;50.88;;;27.90;;
84937;SDS011;75210;52.210;20.902;2024-03-22T00:13:45;55.22;;;28.80;;
84937;SDS011;75210;52.210;20.902;2024-03-22T00:14:45;50.22;;;26.88;;
84937;SDS011;75210;52.210;20.902;2024-03-22T00:15:47;52.42;;;26.40;;
84937;SDS011;75210;52.210;20.902;2024-03-22T00:16:48;51.50;;;27.70;;
84937;SDS011;75210;52.210;20.902;2024-03-22T00:17:48;44.55;;;25.05;;
84937;SDS011;75210;52.210;20.902;2024-03-22T00:18:49;51.95;;;28.73;;
84937;SDS011;75210;52.210;20.902;2024-03-22T00:19:49;53.78;;;29.30;;
84937;SDS011;75210;52.210;20.902;2024-03-22T00:20:50;55.08;;;29.35;;
84937;SDS011;75210;52.210;20.902;2024-03-22T00:21:51;56.40;;;30.77;;
84937;SDS011;75210;52.210;20.902;2024-03-22T00:22:53;53.65;;;29.55;;
84937;SDS011;75210;52.210;20.902;2024-03-22T00:23:54;63.55;;;31.80;;
84937;SDS011;75210;52.210;20.902;2024-03-22T00:24:54;55.90;;;30.33;;
84937;SDS011;75210;52.210;20.902;2024-03-22T00:25:55;58.65;;;30.38;;
84937;SDS011;75210;52.210;20.902;2024-03-22T00:26:55;57.90;;;30.08;;
84937;SDS011;75210;52.210;20.902;2024-03-22T00:27:56;57.67;;;30.08;;
84937;SDS011;75210;52.210;20.902;2024-03-22T00:28:56;56.38;;;30.17;;
84937;SDS011;75210;52.210;20.902;2024-03-22T00:29:57;57.17;;;29.23;;
84937;SDS011;75210;52.210;20.902;2024-03-22T00:30:57;46.85;;;26.02;;
84937;SDS011;75210;52.210;20.902;2024-03-22T00:31:58;50.38;;;27.33;;
84937;SDS011;75210;52.210;20.902;2024-03-22T00:32:59;60.72;;;31.38;;
84937;SDS011;75210;52.210;20.902;2024-03-22T00:33:59;55.63;;;28.92;;
84937;SDS011;75210;52.210;20.902;2024-03-22T00:35:00;46.83;;;25.20;;
84937;SDS011;75210;52.210;20.902;2024-03-22T00:36:01;52.63;;;27.45;;
84937;SDS011;75210;52.210;20.902;2024-03-22T00:37:02;57.30;;;31.15;;
84937;SDS011;75210;52.210;20.902;2024-03-22T00:38:05;53.35;;;27.23;;
84937;SDS011;75210;52.210;20.902;2024-03-22T00:39:06;53.33;;;27.48;;
84937;SDS011;75210;52.210;20.902;2024-03-22T00:40:06;56.53;;;30.73;;
84937;SDS011;75210;52.210;20.902;2024-03-22T00:41:07;49.97;;;27.08;;
84937;SDS011;75210;52.210;20.902;2024-03-22T00:42:08;60.03;;;30.60;;
84937;SDS011;75210;52.210;20.902;2024-03-22T00:43:08;52.45;;;27.00;;
84937;SDS011;75210;52.210;20.902;2024-03-22T00:44:09;58.75;;;31.52;;
84937;SDS011;75210;52.210;20.902;2024-03-22T00:45:10;57.35;;;29.50;;
84937;SDS011;75210;52.210;20.902;2024-03-22T00:46:10;60.22;;;30.92;;
84937;SDS011;75210;52.210;20.902;2024-03-22T00:47:11;56.25;;;29.23;;
84937;SDS011;75210;52.210;20.902;2024-03-22T00:48:11;53.05;;;28.30;;
84937;SDS011;75210;52.210;20.902;2024-03-22T00:49:12;57.60;;;28.80;;
84937;SDS011;75210;52.210;20.902;2024-03-22T00:50:12;53.90;;;27.00;;
84937;SDS011;75210;52.210;20.902;2024-03-22T00:51:13;49.83;;;25.70;;
84937;SDS011;75210;52.210;20.902;2024-03-22T00:52:13;50.70;;;27.63;;
84937;SDS011;75210;52.210;20.902;2024-03-22T00:53:16;50.40;;;27.60;;
84937;SDS011;75210;52.210;20.902;2024-03-22T00:54:16;60.70;;;30.92;;
84937;SDS011;75210;52.210;20.902;2024-03-22T00:55:17;52.30;;;27.48;;
84937;SDS011;75210;52.210;20.902;2024-03-22T00:56:18;49.72;;;26.67;;
84937;SDS011;75210;52.210;20.902;2024-03-22T00:57:19;58.88;;;28.63;;
84937;SDS011;75210;52.210;20.902;2024-03-22T00:58:20;55.08;;;27.58;;
84937;SDS011;75210;52.210;20.902;2024-03-22T00:59:20;55.85;;;28.15;;
84937;SDS011;75210;52.210;20.902;2024-03-22T01:00:21;64.82;;;32.97;;
84937;SDS011;75210;52.210;20.902;2024-03-22T01:01:21;71.95;;;34.90;;
84937;SDS011;75210;52.210;20.902;2024-03-22T01:02:22;60.53;;;31.45;;
84937;SDS011;75210;52.210;20.902;2024-03-22T01:03:23;66.25;;;32.15;;
84937;SDS011;75210;52.210;20.902;2024-03-22T01:04:23;64.35;;;31.85;;
84937;SDS011;75210;52.210;20.902;2024-03-22T01:05:24;54.15;;;27.23;;
84937;SDS011;75210;52.210;20.902;2024-03-22T01:06:24;53.88;;;28.38;;
84937;SDS011;75210;52.210;20.902;2024-03-22T01:07:25;55.85;;;30.05;;
84937;SDS011;75210;52.210;20.902;2024-03-22T01:08:27;64.28;;;32.22;;
84937;SDS011;75210;52.210;20.902;2024-03-22T01:09:28;50.92;;;26.40;;
84937;SDS011;75210;52.210;20.902;2024-03-22T01:10:29;62.33;;;30.33;;
84937;SDS011;75210;52.210;20.902;2024-03-22T01:11:29;63.33;;;31.00;;
84937;SDS011;75210;52.210;20.902;2024-03-22T01:12:30;58.38;;;29.80;;
84937;SDS011;75210;52.210;20.902;2024-03-22T01:13:31;54.35;;;26.40;;
84937;SDS011;75210;52.210;20.902;2024-03-22T01:14:31;55.25;;;27.70;;
84937;SDS011;75210;52.210;20.902;2024-03-22T01:15:32;69.82;;;34.88;;
84937;SDS011;75210;52.210;20.902;2024-03-22T01:16:32;67.00;;;31.95;;
84937;SDS011;75210;52.210;20.902;2024-03-22T01:17:33;72.05;;;34.25;;
84937;SDS011;75210;52.210;20.902;2024-03-22T01:18:34;65.68;;;31.63;;
84937;SDS011;75210;52.210;20.902;2024-03-22T01:19:34;59.78;;;30.23;;
84937;SDS011;75210;52.210;20.902;2024-03-22T01:20:35;54.88;;;27.40;;
84937;SDS011;75210;52.210;20.902;2024-03-22T01:21:35;65.88;;;33.00;;
84937;SDS011;75210;52.210;20.902;2024-03-22T01:22:36;58.38;;;29.73;;
84937;SDS011;75210;52.210;20.902;2024-03-22T01:23:38;61.55;;;29.52;;
84937;SDS011;75210;52.210;20.902;2024-03-22T01:24:38;60.42;;;30.33;;
84937;SDS011;75210;52.210;20.902;2024-03-22T01:25:39;54.60;;;28.45;;
84937;SDS011;75210;52.210;20.902;2024-03-22T01:26:39;56.53;;;29.40;;
84937;SDS011;75210;52.210;20.902;2024-03-22T01:27:40;63.92;;;32.92;;
84937;SDS011;75210;52.210;20.902;2024-03-22T01:28:40;58.20;;;29.60;;
84937;SDS011;75210;52.210;20.902;2024-03-22T01:29:41;69.15;;;32.85;;
84937;SDS011;75210;52.210;20.902;2024-03-22T01:30:42;64.57;;;31.08;;
84937;SDS011;75210;52.210;20.902;2024-03-22T01:31:42;75.25;;;34.90;;
84937;SDS011;75210;52.210;20.902;2024-03-22T01:32:43;69.35;;;33.53;;
84937;SDS011;75210;52.210;20.902;2024-03-22T01:33:43;62.33;;;30.98;;
84937;SDS011;75210;52.210;20.902;2024-03-22T01:34:44;56.72;;;29.50;;
84937;SDS011;75210;52.210;20.902;2024-03-22T01:35:44;74.93;;;34.00;;
84937;SDS011;75210;52.210;20.902;2024-03-22T01:36:45;74.15;;;35.35;;
84937;SDS011;75210;52.210;20.902;2024-03-22T01:37:45;72.50;;;35.50;;
84937;SDS011;75210;52.210;20.902;2024-03-22T01:38:48;65.75;;;32.50;;
84937;SDS011;75210;52.210;20.902;2024-03-22T01:39:48;73.63;;;35.22;;
84937;SDS011;75210;52.210;20.902;2024-03-22T01:40:49;61.70;;;33.33;;
84937;SDS011;75210;52.210;20.902;2024-03-22T01:41:49;55.45;;;28.05;;
84937;SDS011;75210;52.210;20.902;2024-03-22T01:42:52;68.90;;;33.50;;
84937;SDS011;75210;52.210;20.902;2024-03-22T01:43:53;65.30;;;32.30;;
84937;SDS011;75210;52.210;20.902;2024-03-22T01:44:54;68.65;;;33.30;;
84937;SDS011;75210;52.210;20.902;2024-03-22T01:45:54;59.60;;;30.95;;
84937;SDS011;75210;52.210;20.902;2024-03-22T01:46:55;64.28;;;29.50;;
84937;SDS011;75210;52.210;20.902;2024-03-22T01:47:56;66.63;;;32.90;;
84937;SDS011;75210;52.210;20.902;2024-03-22T01:48:57;65.65;;;32.38;;
84937;SDS011;75210;52.210;20.902;2024-03-22T01:49:58;73.05;;;33.90;;
84937;SDS011;75210;52.210;20.902;2024-03-22T01:50:59;77.50;;;34.00;;
84937;SDS011;75210;52.210;20.902;2024-03-22T01:52:00;62.80;;;31.13;;
84937;SDS011;75210;52.210;20.902;2024-03-22T01:53:00;73.85;;;35.83;;
84937;SDS011;75210;52.210;20.902;2024-03-22T01:54:03;67.50;;;31.50;;
84937;SDS011;75210;52.210;20.902;2024-03-22T01:55:08;66.50;;;31.00;;
84937;SDS011;75210;52.210;20.902;2024-03-22T01:56:08;75.03;;;34.53;;
84937;SDS011;75210;52.210;20.902;2024-03-22T01:57:09;60.45;;;29.88;;
84937;SDS011;75210;52.210;20.902;2024-03-22T01:58:10;74.38;;;33.33;;
84937;SDS011;75210;52.210;20.902;2024-03-22T01:59:11;63.97;;;31.17;;
84937;SDS011;75210;52.210;20.902;2024-03-22T02:00:13;73.80;;;33.30;;
84937;SDS011;75210;52.210;20.902;2024-03-22T02:01:14;68.70;;;32.42;;
84937;SDS011;75210;52.210;20.902;2024-03-22T02:02:15;67.40;;;32.25;;
84937;SDS011;75210;52.210;20.902;2024-03-22T02:03:15;83.45;;;37.13;;
84937;SDS011;75210;52.210;20.902;2024-03-22T02:04:16;66.88;;;32.78;;
84937;SDS011;75210;52.210;20.902;2024-03-22T02:05:17;80.07;;;34.60;;
84937;SDS011;75210;52.210;20.902;2024-03-22T02:06:18;67.45;;;32.28;;
84937;SDS011;75210;52.210;20.902;2024-03-22T02:07:18;84.25;;;35.50;;
84937;SDS011;75210;52.210;20.902;2024-03-22T02:08:19;94.00;;;37.80;;
84937;SDS011;75210;52.210;20.902;2024-03-22T02:09:21;69.40;;;30.90;;
84937;SDS011;75210;52.210;20.902;2024-03-22T02:10:21;76.05;;;34.92;;
84937;SDS011;75210;52.210;20.902;2024-03-22T02:11:22;67.28;;;31.08;;
84937;SDS011;75210;52.210;20.902;2024-03-22T02:12:23;94.15;;;36.83;;
84937;SDS011;75210;52.210;20.902;2024-03-22T02:13:23;69.50;;;31.85;;
84937;SDS011;75210;52.210;20.902;2024-03-22T02:14:24;65.07;;;30.15;;
84937;SDS011;75210;52.210;20.902;2024-03-22T02:15:24;69.50;;;31.58;;
84937;SDS011;75210;52.210;20.902;2024-03-22T02:16:25;79.05;;;34.70;;
84937;SDS011;75210;52.210;20.902;2024-03-22T02:17:25;74.70;;;31.58;;
84937;SDS011;75210;52.210;20.902;2024-03-22T02:18:26;72.70;;;32.70;;
84937;SDS011;75210;52.210;20.902;2024-03-22T02:19:28;68.43;;;31.17;;
84937;SDS011;75210;52.210;20.902;2024-03-22T02:20:29;71.50;;;32.63;;
84937;SDS011;75210;52.210;20.902;2024-03-22T02:21:29;71.00;;;32.58;;
84937;SDS011;75210;52.210;20.902;2024-03-22T02:22:30;82.18;;;37.97;;
84937;SDS011;75210;52.210;20.902;2024-03-22T02:23:33;72.13;;;31.65;;
84937;SDS011;75210;52.210;20.902;2024-03-22T02:24:35;76.50;;;31.83;;
84937;SDS011;75210;52.210;20.902;2024-03-22T02:25:35;74.32;;;30.60;;
84937;SDS011;75210;52.210;20.902;2024-03-22T02:26:36;72.15;;;31.55;;
84937;SDS011;75210;52.210;20.902;2024-03-22T02:27:37;87.10;;;32.97;;
84937;SDS011;75210;52.210;20.902;2024-03-22T02:28:38;98.60;;;33.40;;
84937;SDS011;75210;52.210;20.902;2024-03-22T02:29:39;87.47;;;34.40;;
84937;SDS011;75210;52.210;20.902;2024-03-22T02:30:39;80.60;;;32.95;;
84937;SDS011;75210;52.210;20.902;2024-03-22T02:31:40;82.30;;;36.08;;
84937;SDS011;75210;52.210;20.902;2024-03-22T02:32:40;117.32;;;41.30;;
84937;SDS011;75210;52.210;20.902;2024-03-22T02:33:41;92.45;;;38.45;;
84937;SDS011;75210;52.210;20.902;2024-03-22T02:34:41;90.28;;;35.80;;
84937;SDS011;75210;52.210;20.902;2024-03-22T02:35:42;121.18;;;37.08;;
84937;SDS011;75210;52.210;20.902;2024-03-22T02:36:43;87.90;;;33.78;;
84937;SDS011;75210;52.210;20.902;2024-03-22T02:37:43;96.82;;;38.97;;
84937;SDS011;75210;52.210;20.902;2024-03-22T02:38:45;72.22;;;31.17;;
84937;SDS011;75210;52.210;20.902;2024-03-22T02:39:46;94.68;;;38.53;;
84937;SDS011;75210;52.210;20.902;2024-03-22T02:40:47;69.68;;;32.72;;
84937;SDS011;75210;52.210;20.902;2024-03-22T02:41:48;65.68;;;31.05;;
84937;SDS011;75210;52.210;20.902;2024-03-22T02:42:49;64.57;;;30.55;;
84937;SDS011;75210;52.210;20.902;2024-03-22T02:43:49;69.30;;;31.75;;
84937;SDS011;75210;52.210;20.902;2024-03-22T02:44:50;72.95;;;32.22;;
84937;SDS011;75210;52.210;20.902;2024-03-22T02:45:50;78.40;;;32.60;;
84937;SDS011;75210;52.210;20.902;2024-03-22T02:46:51;66.95;;;30.48;;
84937;SDS011;75210;52.210;20.902;2024-03-22T02:47:51;69.70;;;32.42;;
84937;SDS011;75210;52.210;20.902;2024-03-22T02:48:52;72.03;;;31.27;;
84937;SDS011;75210;52.210;20.902;2024-03-22T02:49:52;72.28;;;32.35;;
84937;SDS011;75210;52.210;20.902;2024-03-22T02:50:54;64.68;;;31.50;;
84937;SDS011;75210;52.210;20.902;2024-03-22T02:51:56;72.13;;;32.03;;
84937;SDS011;75210;52.210;20.902;2024-03-22T02:52:56;79.47;;;34.55;;
84937;SDS011;75210;52.210;20.902;2024-03-22T02:53:59;84.35;;;35.30;;
84937;SDS011;75210;52.210;20.902;2024-03-22T02:54:59;65.05;;;30.33;;
84937;SDS011;75210;52.210;20.902;2024-03-22T02:56:00;64.15;;;30.40;;
84937;SDS011;75210;52.210;20.902;2024-03-22T02:57:00;68.95;;;31.38;;
84937;SDS011;75210;52.210;20.902;2024-03-22T02:58:01;71.20;;;32.40;;
84937;SDS011;75210;52.210;20.902;2024-03-22T02:59:01;70.05;;;31.95;;
84937;SDS011;75210;52.210;20.902;2024-03-22T03:00:02;66.97;;;30.95;;
84937;SDS011;75210;52.210;20.902;2024-03-22T03:01:03;66.18;;;30.38;;
84937;SDS011;75210;52.210;20.902;2024-03-22T03:02:04;64.53;;;30.50;;
84937;SDS011;75210;52.210;20.902;2024-03-22T03:03:04;62.10;;;29.42;;
84937;SDS011;75210;52.210;20.902;2024-03-22T03:04:05;67.45;;;28.88;;
84937;SDS011;75210;52.210;20.902;2024-03-22T03:05:06;62.70;;;29.70;;
84937;SDS011;75210;52.210;20.902;2024-03-22T03:06:06;62.47;;;29.73;;
84937;SDS011;75210;52.210;20.902;2024-03-22T03:07:07;63.35;;;29.90;;
84937;SDS011;75210;52.210;20.902;2024-03-22T03:08:07;68.30;;;31.42;;
84937;SDS011;75210;52.210;20.902;2024-03-22T03:09:10;72.78;;;32.33;;
84937;SDS011;75210;52.210;20.902;2024-03-22T03:10:11;65.70;;;30.05;;
84937;SDS011;75210;52.210;20.902;2024-03-22T03:11:11;74.90;;;32.72;;
84937;SDS011;75210;52.210;20.902;2024-03-22T03:12:12;65.45;;;31.58;;
84937;SDS011;75210;52.210;20.902;2024-03-22T03:13:12;59.88;;;28.33;;
84937;SDS011;75210;52.210;20.902;2024-03-22T03:14:13;64.35;;;29.10;;
84937;SDS011;75210;52.210;20.902;2024-03-22T03:15:13;70.35;;;30.80;;
84937;SDS011;75210;52.210;20.902;2024-03-22T03:16:14;62.65;;;28.20;;
84937;SDS011;75210;52.210;20.902;2024-03-22T03:17:14;56.78;;;27.70;;
84937;SDS011;75210;52.210;20.902;2024-03-22T03:18:15;63.47;;;28.90;;
84937;SDS011;75210;52.210;20.902;2024-03-22T03:19:15;63.08;;;29.65;;
84937;SDS011;75210;52.210;20.902;2024-03-22T03:20:16;60.75;;;29.48;;
84937;SDS011;75210;52.210;20.902;2024-03-22T03:21:17;69.30;;;31.13;;
84937;SDS011;75210;52.210;20.902;2024-03-22T03:22:17;64.45;;;28.50;;
84937;SDS011;75210;52.210;20.902;2024-03-22T03:23:18;61.90;;;28.30;;
84937;SDS011;75210;52.210;20.902;2024-03-22T03:24:20;66.93;;;29.95;;
84937;SDS011;75210;52.210;20.902;2024-03-22T03:25:20;62.15;;;28.33;;
84937;SDS011;75210;52.210;20.902;2024-03-22T03:26:21;68.93;;;29.13;;
84937;SDS011;75210;52.210;20.902;2024-03-22T03:27:21;68.15;;;30.25;;
84937;SDS011;75210;52.210;20.902;2024-03-22T03:28:22;60.30;;;26.63;;
84937;SDS011;75210;52.210;20.902;2024-03-22T03:29:22;73.10;;;31.60;;
84937;SDS011;75210;52.210;20.902;2024-03-22T03:30:23;79.38;;;32.58;;
84937;SDS011;75210;52.210;20.902;2024-03-22T03:31:23;60.00;;;27.30;;
84937;SDS011;75210;52.210;20.902;2024-03-22T03:32:24;66.57;;;30.00;;
84937;SDS011;75210;52.210;20.902;2024-03-22T03:33:24;63.92;;;26.48;;
84937;SDS011;75210;52.210;20.902;2024-03-22T03:34:25;56.20;;;23.08;;
84937;SDS011;75210;52.210;20.902;2024-03-22T03:35:25;62.63;;;26.88;;
84937;SDS011;75210;52.210;20.902;2024-03-22T03:36:26;61.00;;;25.70;;
84937;SDS011;75210;52.210;20.902;2024-03-22T03:37:26;67.57;;;30.15;;
84937;SDS011;75210;52.210;20.902;2024-03-22T03:38:27;71.97;;;30.58;;
84937;SDS011;75210;52.210;20.902;2024-03-22T03:39:29;62.05;;;26.50;;
84937;SDS011;75210;52.210;20.902;2024-03-22T03:40:30;62.05;;;27.75;;
84937;SDS011;75210;52.210;20.902;2024-03-22T03:41:30;59.90;;;27.52;;
84937;SDS011;75210;52.210;20.902;2024-03-22T03:42:31;58.80;;;27.75;;
84937;SDS011;75210;52.210;20.902;2024-03-22T03:43:32;55.58;;;26.08;;
84937;SDS011;75210;52.210;20.902;2024-03-22T03:44:32;54.33;;;25.42;;
84937;SDS011;75210;52.210;20.902;2024-03-22T03:45:35;62.95;;;28.48;;
84937;SDS011;75210;52.210;20.902;2024-03-22T03:46:36;56.53;;;27.17;;
84937;SDS011;75210;52.210;20.902;2024-03-22T03:47:37;57.50;;;26.20;;
84937;SDS011;75210;52.210;20.902;2024-03-22T03:48:37;59.60;;;26.13;;
84937;SDS011;75210;52.210;20.902;2024-03-22T03:49:38;54.80;;;24.77;;
84937;SDS011;75210;52.210;20.902;2024-03-22T03:50:38;58.00;;;26.42;;
84937;SDS011;75210;52.210;20.902;2024-03-22T03:51:39;47.30;;;22.50;;
84937;SDS011;75210;52.210;20.902;2024-03-22T03:52:39;45.80;;;22.13;;
84937;SDS011;75210;52.210;20.902;2024-03-22T03:53:40;57.58;;;24.90;;
84937;SDS011;75210;52.210;20.902;2024-03-22T03:54:42;63.65;;;26.10;;
84937;SDS011;75210;52.210;20.902;2024-03-22T03:55:42;49.75;;;21.08;;
84937;SDS011;75210;52.210;20.902;2024-03-22T03:56:43;56.35;;;23.13;;
84937;SDS011;75210;52.210;20.902;2024-03-22T03:57:43;49.65;;;23.10;;
84937;SDS011;75210;52.210;20.902;2024-03-22T03:58:45;49.65;;;21.45;;
84937;SDS011;75210;52.210;20.902;2024-03-22T03:59:45;48.15;;;20.20;;
84937;SDS011;75210;52.210;20.902;2024-03-22T04:00:46;51.30;;;22.48;;
84937;SDS011;75210;52.210;20.902;2024-03-22T04:01:46;45.13;;;19.42;;
84937;SDS011;75210;52.210;20.902;2024-03-22T04:02:48;44.92;;;20.60;;
84937;SDS011;75210;52.210;20.902;2024-03-22T04:03:48;50.95;;;20.40;;
84937;SDS011;75210;52.210;20.902;2024-03-22T04:04:51;43.30;;;19.85;;
84937;SDS011;75210;52.210;20.902;2024-03-22T04:05:56;41.35;;;19.02;;
84937;SDS011;75210;52.210;20.902;2024-03-22T04:06:56;50.88;;;22.65;;
84937;SDS011;75210;52.210;20.902;2024-03-22T04:07:57;57.30;;;21.88;;
84937;SDS011;75210;52.210;20.902;2024-03-22T04:08:57;50.55;;;20.85;;
84937;SDS011;75210;52.210;20.902;2024-03-22T04:10:00;50.53;;;20.85;;
84937;SDS011;75210;52.210;20.902;2024-03-22T04:11:00;48.75;;;21.17;;
84937;SDS011;75210;52.210;20.902;2024-03-22T04:12:01;54.97;;;22.80;;
84937;SDS011;75210;52.210;20.902;2024-03-22T04:13:01;52.30;;;21.65;;
84937;SDS011;75210;52.210;20.902;2024-03-22T04:14:02;54.88;;;21.60;;
84937;SDS011;75210;52.210;20.902;2024-03-22T04:15:03;50.45;;;19.63;;
84937;SDS011;75210;52.210;20.902;2024-03-22T04:16:04;50.03;;;22.05;;
84937;SDS011;75210;52.210;20.902;2024-03-22T04:17:05;55.97;;;22.58;;
84937;SDS011;75210;52.210;20.902;2024-03-22T04:18:05;56.20;;;24.27;;
84937;SDS011;75210;52.210;20.902;2024-03-22T04:19:06;55.22;;;23.90;;
84937;SDS011;75210;52.210;20.902;2024-03-22T04:20:07;59.75;;;24.60;;
84937;SDS011;75210;52.210;20.902;2024-03-22T04:21:08;49.22;;;21.05;;
84937;SDS011;75210;52.210;20.902;2024-03-22T04:22:08;59.55;;;22.38;;
84937;SDS011;75210;52.210;20.902;2024-03-22T04:23:09;57.55;;;23.45;;
84937;SDS011;75210;52.210;20.902;2024-03-22T04:24:09;61.05;;;25.10;;
84937;SDS011;75210;52.210;20.902;2024-03-22T04:25:12;58.90;;;24.67;;
84937;SDS011;75210;52.210;20.902;2024-03-22T04:26:15;56.72;;;22.95;;
84937;SDS011;75210;52.210;20.902;2024-03-22T04:27:15;49.08;;;21.20;;
84937;SDS011;75210;52.210;20.902;2024-03-22T04:28:16;53.78;;;22.45;;
84937;SDS011;75210;52.210;20.902;2024-03-22T04:29:16;55.00;;;24.80;;
84937;SDS011;75210;52.210;20.902;2024-03-22T04:30:17;53.10;;;24.60;;
84937;SDS011;75210;52.210;20.902;2024-03-22T04:31:17;50.05;;;21.73;;
84937;SDS011;75210;52.210;20.902;2024-03-22T04:32:18;54.42;;;23.60;;
84937;SDS011;75210;52.210;20.902;2024-03-22T04:33:18;50.63;;;22.35;;
84937;SDS011;75210;52.210;20.902;2024-03-22T04:34:19;57.75;;;24.48;;
84937;SDS011;75210;52.210;20.902;2024-03-22T04:35:19;54.67;;;22.20;;
84937;SDS011;75210;52.210;20.902;2024-03-22T04:36:20;55.60;;;22.75;;
84937;SDS011;75210;52.210;20.902;2024-03-22T04:37:20;59.10;;;24.13;;
84937;SDS011;75210;52.210;20.902;2024-03-22T04:38:21;65.13;;;25.92;;
84937;SDS011;75210;52.210;20.902;2024-03-22T04:39:22;53.45;;;23.10;;
84937;SDS011;75210;52.210;20.902;2024-03-22T04:40:24;60.30;;;24.52;;
84937;SDS011;75210;52.210;20.902;2024-03-22T04:41:25;54.55;;;23.42;;
84937;SDS011;75210;52.210;20.902;2024-03-22T04:42:25;55.45;;;23.48;;
84937;SDS011;75210;52.210;20.902;2024-03-22T04:43:26;55.97;;;23.95;;
84937;SDS011;75210;52.210;20.902;2024-03-22T04:44:26;60.88;;;24.73;;
84937;SDS011;75210;52.210;20.902;2024-03-22T04:45:27;53.70;;;23.05;;
84937;SDS011;75210;52.210;20.902;2024-03-22T04:46:27;55.67;;;24.33;;
84937;SDS011;75210;52.210;20.902;2024-03-22T04:47:28;57.17;;;23.42;;
84937;SDS011;75210;52.210;20.902;2024-03-22T04:48:28;55.83;;;24.60;;
84937;SDS011;75210;52.210;20.902;2024-03-22T04:49:29;60.83;;;25.27;;
84937;SDS011;75210;52.210;20.902;2024-03-22T04:50:29;53.45;;;23.85;;
84937;SDS011;75210;52.210;20.902;2024-03-22T04:51:30;54.88;;;23.92;;
84937;SDS011;75210;52.210;20.902;2024-03-22T04:52:30;47.92;;;22.13;;
84937;SDS011;75210;52.210;20.902;2024-03-22T04:53:31;58.05;;;23.75;;
84937;SDS011;75210;52.210;20.902;2024-03-22T04:54:31;49.13;;;21.70;;
84937;SDS011;75210;52.210;20.902;2024-03-22T04:55:33;52.20;;;22.02;;
84937;SDS011;75210;52.210;20.902;2024-03-22T04:56:34;59.72;;;25.58;;
84937;SDS011;75210;52.210;20.902;2024-03-22T04:57:35;50.97;;;22.35;;
84937;SDS011;75210;52.210;20.902;2024-03-22T04:58:35;48.92;;;21.65;;
84937;SDS011;75210;52.210;20.902;2024-03-22T04:59:36;47.38;;;21.17;;
84937;SDS011;75210;52.210;20.902;2024-03-22T05:00:36;50.28;;;21.05;;
84937;SDS011;75210;52.210;20.902;2024-03-22T05:01:37;43.95;;;19.13;;
84937;SDS011;75210;52.210;20.902;2024-03-22T05:02:37;42.25;;;20.15;;
84937;SDS011;75210;52.210;20.902;2024-03-22T05:03:38;40.78;;;19.00;;
84937;SDS011;75210;52.210;20.902;2024-03-22T05:04:38;49.42;;;20.02;;
84937;SDS011;75210;52.210;20.902;2024-03-22T05:05:39;43.80;;;20.92;;
84937;SDS011;75210;52.210;20.902;2024-03-22T05:06:40;47.28;;;22.08;;
84937;SDS011;75210;52.210;20.902;2024-03-22T05:07:40;41.83;;;19.42;;
84937;SDS011;75210;52.210;20.902;2024-03-22T05:08:41;49.85;;;20.55;;
84937;SDS011;75210;52.210;20.902;2024-03-22T05:09:41;44.95;;;18.67;;
84937;SDS011;75210;52.210;20.902;2024-03-22T05:10:43;47.85;;;21.02;;
84937;SDS011;75210;52.210;20.902;2024-03-22T05:11:44;48.70;;;20.30;;
84937;SDS011;75210;52.210;20.902;2024-03-22T05:12:44;46.17;;;20.90;;
84937;SDS011;75210;52.210;20.902;2024-03-22T05:13:45;45.65;;;21.25;;
84937;SDS011;75210;52.210;20.902;2024-03-22T05:14:45;51.67;;;22.33;;
84937;SDS011;75210;52.210;20.902;2024-03-22T05:15:46;46.22;;;21.15;;
84937;SDS011;75210;52.210;20.902;2024-03-22T05:16:46;51.65;;;22.25;;
84937;SDS011;75210;52.210;20.902;2024-03-22T05:17:48;50.92;;;23.27;;
84937;SDS011;75210;52.210;20.902;2024-03-22T05:18:48;55.25;;;23.00;;
84937;SDS011;75210;52.210;20.902;2024-03-22T05:19:49;50.35;;;22.20;;
84937;SDS011;75210;52.210;20.902;2024-03-22T05:20:49;52.00;;;22.02;;
84937;SDS011;75210;52.210;20.902;2024-03-22T05:21:50;53.78;;;22.95;;
84937;SDS011;75210;52.210;20.902;2024-03-22T05:22:50;57.17;;;24.55;;
84937;SDS011;75210;52.210;20.902;2024-03-22T05:23:51;51.08;;;23.85;;
84937;SDS011;75210;52.210;20.902;2024-03-22T05:24:51;50.03;;;23.17;;
84937;SDS011;75210;52.210;20.902;2024-03-22T05:25:54;51.83;;;23.95;;
84937;SDS011;75210;52.210;20.902;2024-03-22T05:26:55;49.72;;;23.65;;
84937;SDS011;75210;52.210;20.902;2024-03-22T05:27:55;53.00;;;22.90;;
84937;SDS011;75210;52.210;20.902;2024-03-22T05:28:56;52.90;;;23.77;;
84937;SDS011;75210;52.210;20.902;2024-03-22T05:29:56;54.33;;;23.20;;
84937;SDS011;75210;52.210;20.902;2024-03-22T05:30:57;47.67;;;21.83;;
84937;SDS011;75210;52.210;20.902;2024-03-22T05:31:57;56.13;;;25.52;;
84937;SDS011;75210;52.210;20.902;2024-03-22T05:32:57;48.50;;;21.85;;
84937;SDS011;75210;52.210;20.902;2024-03-22T05:33:58;45.28;;;21.13;;
84937;SDS011;75210;52.210;20.902;2024-03-22T05:34:58;46.92;;;20.65;;
84937;SDS011;75210;52.210;20.902;2024-03-22T05:35:59;45.35;;;21.17;;
84937;SDS011;75210;52.210;20.902;2024-03-22T05:36:59;47.63;;;21.33;;
84937;SDS011;75210;52.210;20.902;2024-03-22T05:38:00;45.55;;;21.65;;
84937;SDS011;75210;52.210;20.902;2024-03-22T05:39:00;44.47;;;21.33;;
84937;SDS011;75210;52.210;20.902;2024-03-22T05:40:01;48.85;;;22.65;;
84937;SDS011;75210;52.210;20.902;2024-03-22T05:41:05;46.65;;;22.40;;
84937;SDS011;75210;52.210;20.902;2024-03-22T05:42:05;48.47;;;22.58;;
84937;SDS011;75210;52.210;20.902;2024-03-22T05:43:06;49.90;;;21.52;;
84937;SDS011;75210;52.210;20.902;2024-03-22T05:44:07;48.75;;;22.77;;
84937;SDS011;75210;52.210;20.902;2024-03-22T05:45:08;48.92;;;22.48;;
84937;SDS011;75210;52.210;20.902;2024-03-22T05:46:09;48.45;;;21.58;;
84937;SDS011;75210;52.210;20.902;2024-03-22T05:47:10;45.95;;;22.05;;
84937;SDS011;75210;52.210;20.902;2024-03-22T05:48:10;43.30;;;21.63;;
84937;SDS011;75210;52.210;20.902;2024-03-22T05:49:10;49.38;;;21.58;;
84937;SDS011;75210;52.210;20.902;2024-03-22T05:50:11;46.47;;;22.13;;